createdAt,value
2022-12-11T00:00:56.951Z,97616.09
2022-12-11T00:02:29.638Z,97610.09
2022-12-11T00:04:01.650Z,97609.28
2022-12-11T00:05:33.961Z,97613.63
2022-12-11T00:07:06.052Z,97627.41
2022-12-11T00:08:38.253Z,97627.41
2022-12-11T00:10:10.312Z,97608.44
2022-12-11T00:11:42.222Z,97599.94
2022-12-11T00:13:14.178Z,97591.28
2022-12-11T00:14:46.120Z,97587.78
2022-12-11T00:16:20.385Z,97595.44
2022-12-11T00:17:56.015Z,97592.13
2022-12-11T00:19:28.113Z,97589.38
2022-12-11T00:21:05.340Z,97584.06
2022-12-11T00:22:37.404Z,97589.44
2022-12-11T00:24:09.497Z,97586.88
2022-12-11T00:25:46.194Z,97588.38
2022-12-11T00:27:18.123Z,97580.03
2022-12-11T00:28:54.181Z,97572.19
2022-12-11T00:30:26.213Z,97570.78
2022-12-11T00:31:58.239Z,97575.94
2022-12-11T00:33:30.239Z,97570.00
2022-12-11T00:35:02.325Z,97570.09
2022-12-11T00:36:34.616Z,97567.44
2022-12-11T00:38:06.721Z,97569.25
2022-12-11T00:39:40.167Z,97565.84
2022-12-11T00:41:12.772Z,97560.69
2022-12-11T00:42:44.709Z,97559.94
2022-12-11T00:44:16.721Z,97555.78
2022-12-11T00:45:49.093Z,97561.00
2022-12-11T00:47:21.143Z,97551.81
2022-12-11T00:48:53.870Z,97544.13
2022-12-11T00:50:25.969Z,97533.91
2022-12-11T00:51:58.031Z,97528.81
2022-12-11T00:53:30.128Z,97533.97
2022-12-11T00:55:02.136Z,97539.88
2022-12-11T00:56:35.155Z,97554.44
2022-12-11T00:58:07.466Z,97560.59
2022-12-11T00:59:39.766Z,97548.69
2022-12-11T01:01:15.055Z,97557.25
2022-12-11T01:02:47.111Z,97544.16
2022-12-11T01:04:19.598Z,97555.41
2022-12-11T01:05:56.304Z,97561.28
2022-12-11T01:07:28.257Z,97542.50
2022-12-11T01:09:18.796Z,97545.31
2022-12-11T01:10:50.800Z,97546.09
2022-12-11T01:12:25.142Z,97532.19
2022-12-11T01:13:57.182Z,97533.25
2022-12-11T01:15:41.773Z,97527.03
2022-12-11T01:17:14.102Z,97532.31
2022-12-11T01:18:46.061Z,97524.69
2022-12-11T01:20:19.639Z,97515.19
2022-12-11T01:21:51.618Z,97520.47
2022-12-11T01:23:23.583Z,97532.47
2022-12-11T01:24:55.561Z,97537.66
2022-12-11T01:26:27.594Z,97529.06
2022-12-11T01:27:59.916Z,97518.81
2022-12-11T01:29:32.795Z,97528.31
2022-12-11T01:31:12.925Z,97517.06
2022-12-11T01:32:45.019Z,97510.44
2022-12-11T01:34:17.004Z,97505.44
2022-12-11T01:35:49.013Z,97498.59
2022-12-11T01:37:24.228Z,97508.09
2022-12-11T01:38:56.753Z,97502.94
2022-12-11T01:40:28.710Z,97511.59
2022-12-11T01:42:01.553Z,97496.94
2022-12-11T01:43:33.586Z,97499.75
2022-12-11T01:45:35.654Z,97502.09
2022-12-11T01:47:08.102Z,97505.72
2022-12-11T01:48:42.572Z,97504.84
2022-12-11T01:50:14.855Z,97493.88
2022-12-11T01:51:57.740Z,97481.75
2022-12-11T01:53:35.911Z,97486.97
2022-12-11T01:55:10.044Z,97475.06
2022-12-11T01:56:44.271Z,97467.34
2022-12-11T01:58:17.286Z,97464.97
2022-12-11T01:59:49.325Z,97477.19
2022-12-11T02:01:27.435Z,97478.28
2022-12-11T02:02:59.475Z,97481.03
2022-12-11T02:04:32.626Z,97478.38
2022-12-11T02:06:05.054Z,97489.59
2022-12-11T02:07:47.342Z,97500.66
2022-12-11T02:09:25.357Z,97511.75
2022-12-11T02:11:16.366Z,97505.69
2022-12-11T02:12:55.076Z,97487.66
2022-12-11T02:14:48.447Z,97490.13
2022-12-11T02:16:32.499Z,97505.59
2022-12-11T02:18:34.366Z,97515.84
2022-12-11T02:20:22.470Z,97510.75
2022-12-11T02:21:55.318Z,97497.09
2022-12-11T02:23:48.576Z,97491.81
2022-12-11T02:25:37.656Z,97485.84
2022-12-11T02:27:35.691Z,97479.63
2022-12-11T02:29:09.641Z,97474.59
2022-12-11T02:30:43.187Z,97473.78
2022-12-11T02:32:24.098Z,97477.13
2022-12-11T02:34:05.861Z,97472.72
2022-12-11T02:35:41.632Z,97467.56
2022-12-11T02:37:19.165Z,97470.13
2022-12-11T02:38:52.905Z,97476.06
2022-12-11T02:40:27.457Z,97477.66
2022-12-11T02:42:00.111Z,97492.22
2022-12-11T02:43:33.081Z,97506.78
2022-12-11T02:45:06.529Z,97524.78
2022-12-11T02:46:38.427Z,97535.84
2022-12-11T02:48:11.571Z,97529.28
2022-12-11T02:51:17.611Z,97519.13
2022-12-11T02:52:51.453Z,97531.03
2022-12-11T02:54:28.213Z,97558.44
2022-12-11T02:56:13.841Z,97557.88
2022-12-11T02:57:59.010Z,97557.06
2022-12-11T02:59:39.628Z,97566.25
2022-12-11T03:01:11.779Z,97570.72
2022-12-11T03:02:44.508Z,97563.97
2022-12-11T03:04:16.692Z,97560.25
2022-12-11T03:05:51.390Z,97546.41
2022-12-11T03:07:26.155Z,97559.69
2022-12-11T03:08:58.172Z,97556.28
2022-12-11T03:10:30.442Z,97573.28
2022-12-11T03:12:02.516Z,97554.25
2022-12-11T03:13:34.579Z,97538.69
2022-12-11T03:15:14.085Z,97542.81
2022-12-11T03:16:57.444Z,97535.75
2022-12-11T03:18:44.407Z,97542.59
2022-12-11T03:20:19.274Z,97527.44
2022-12-11T03:21:59.172Z,97513.50
2022-12-11T03:23:36.290Z,97522.00
2022-12-11T03:25:13.631Z,97543.41
2022-12-11T03:26:56.185Z,97547.91
2022-12-11T03:28:54.866Z,97549.50
2022-12-11T03:30:29.467Z,97552.13
2022-12-11T03:32:29.197Z,97559.81
2022-12-11T03:34:04.055Z,97555.63
2022-12-11T03:35:40.630Z,97558.13
2022-12-11T03:37:13.907Z,97564.63
2022-12-11T03:39:00.661Z,97569.88
2022-12-11T03:40:34.287Z,97576.13
2022-12-11T03:42:08.886Z,97578.19
2022-12-11T03:43:41.154Z,97588.81
2022-12-11T03:45:13.859Z,97580.03
2022-12-11T03:46:46.799Z,97587.78
2022-12-11T03:48:19.506Z,97579.16
2022-12-11T03:49:52.627Z,97565.97
2022-12-11T03:51:25.085Z,97572.78
2022-12-11T03:52:57.376Z,97567.63
2022-12-11T03:54:29.815Z,97568.47
2022-12-11T03:56:03.461Z,97563.19
2022-12-11T03:57:37.063Z,97563.25
2022-12-11T03:59:09.166Z,97578.72
2022-12-11T04:00:41.217Z,97582.63
2022-12-11T04:02:13.253Z,97593.09
2022-12-11T04:03:45.339Z,97589.59
2022-12-11T04:05:17.321Z,97596.34
2022-12-11T04:06:49.310Z,97591.97
2022-12-11T04:08:25.082Z,97604.03
2022-12-11T04:09:57.300Z,97601.44
2022-12-11T04:11:34.935Z,97604.25
2022-12-11T04:13:07.553Z,97605.13
2022-12-11T04:14:58.131Z,97602.69
2022-12-11T04:16:30.096Z,97595.69
2022-12-11T04:18:20.313Z,97597.34
2022-12-11T04:20:10.904Z,97595.69
2022-12-11T04:22:01.545Z,97601.66
2022-12-11T04:23:52.255Z,97587.94
2022-12-11T04:25:24.295Z,97582.97
2022-12-11T04:26:56.226Z,97572.81
2022-12-11T04:28:28.206Z,97570.44
2022-12-11T04:30:00.205Z,97572.25
2022-12-11T04:31:32.498Z,97571.53
2022-12-11T04:33:04.643Z,97567.44
2022-12-11T04:34:36.678Z,97566.94
2022-12-11T04:36:09.952Z,97555.63
2022-12-11T04:37:42.677Z,97535.00
2022-12-11T04:39:14.662Z,97527.28
2022-12-11T04:40:46.601Z,97536.69
2022-12-11T04:42:18.693Z,97530.72
2022-12-11T04:43:50.787Z,97536.69
2022-12-11T04:45:22.882Z,97552.28
2022-12-11T04:46:55.251Z,97550.31
2022-12-11T04:48:27.362Z,97550.16
2022-12-11T04:49:59.443Z,97563.59
2022-12-11T04:51:31.448Z,97568.75
2022-12-11T04:53:03.489Z,97573.34
2022-12-11T04:54:35.516Z,97573.69
2022-12-11T04:56:13.603Z,97585.53
2022-12-11T04:57:45.610Z,97594.19
2022-12-11T04:59:17.819Z,97618.56
2022-12-11T05:00:49.872Z,97625.69
2022-12-11T05:02:21.931Z,97635.19
2022-12-11T05:03:54.064Z,97634.75
2022-12-11T05:05:26.098Z,97640.34
2022-12-11T05:06:58.087Z,97646.53
2022-12-11T05:08:30.127Z,97661.63
2022-12-11T05:10:02.350Z,97651.94
2022-12-11T05:11:34.396Z,97638.91
2022-12-11T05:13:06.481Z,97647.31
2022-12-11T05:14:38.599Z,97647.19
2022-12-11T05:17:45.852Z,97646.34
2022-12-11T05:19:17.895Z,97658.19
2022-12-11T05:21:02.235Z,97662.28
2022-12-11T05:22:34.232Z,97663.44
2022-12-11T05:24:06.638Z,97666.03
2022-12-11T05:25:38.613Z,97663.34
2022-12-11T05:27:13.722Z,97649.66
2022-12-11T05:28:46.235Z,97657.41
2022-12-11T05:30:18.268Z,97661.75
2022-12-11T05:31:50.280Z,97655.22
2022-12-11T05:33:22.396Z,97663.78
2022-12-11T05:34:54.463Z,97669.88
2022-12-11T05:36:29.500Z,97673.22
2022-12-11T05:38:01.827Z,97669.00
2022-12-11T05:39:33.897Z,97665.66
2022-12-11T05:41:07.187Z,97657.22
2022-12-11T05:42:39.207Z,97659.03
2022-12-11T05:44:13.613Z,97651.03
2022-12-11T05:45:45.673Z,97655.47
2022-12-11T05:47:20.537Z,97656.34
2022-12-11T05:48:56.041Z,97647.53
2022-12-11T05:50:31.086Z,97661.97
2022-12-11T05:52:03.143Z,97651.81
2022-12-11T05:53:36.781Z,97665.31
2022-12-11T05:55:10.052Z,97661.91
2022-12-11T05:56:42.417Z,97665.16
2022-12-11T05:58:14.508Z,97661.84
2022-12-11T05:59:46.553Z,97661.91
2022-12-11T06:01:21.375Z,97659.25
2022-12-11T06:02:53.541Z,97672.31
2022-12-11T06:04:25.573Z,97673.22
2022-12-11T06:05:57.538Z,97668.88
2022-12-11T06:07:29.648Z,97660.97
2022-12-11T06:09:02.379Z,97659.25
2022-12-11T06:10:34.984Z,97656.03
2022-12-11T06:12:07.183Z,97658.50
2022-12-11T06:13:39.230Z,97651.59
2022-12-11T06:15:11.680Z,97667.91
2022-12-11T06:16:43.863Z,97674.59
2022-12-11T06:18:15.886Z,97677.94
2022-12-11T06:19:47.966Z,97686.47
2022-12-11T06:21:22.694Z,97686.22
2022-12-11T06:22:54.670Z,97696.25
2022-12-11T06:24:26.816Z,97696.78
2022-12-11T06:25:58.962Z,97693.22
2022-12-11T06:27:31.369Z,97693.09
2022-12-11T06:29:08.864Z,97708.34
2022-12-11T06:30:42.910Z,97711.00
2022-12-11T06:32:15.003Z,97717.75
2022-12-11T06:33:47.638Z,97723.63
2022-12-11T06:35:19.571Z,97739.19
2022-12-11T06:36:51.718Z,97747.72
2022-12-11T06:38:24.103Z,97746.81
2022-12-11T06:39:56.091Z,97749.53
2022-12-11T06:41:28.122Z,97756.38
2022-12-11T06:43:00.248Z,97747.59
2022-12-11T06:44:32.225Z,97749.19
2022-12-11T06:46:05.801Z,97746.38
2022-12-11T06:47:37.876Z,97749.88
2022-12-11T06:49:09.849Z,97751.47
2022-12-11T06:50:41.864Z,97756.47
2022-12-11T06:52:18.352Z,97766.53
2022-12-11T06:53:55.500Z,97753.25
2022-12-11T06:55:27.542Z,97751.44
2022-12-11T06:56:59.618Z,97751.38
2022-12-11T06:58:31.943Z,97748.44
2022-12-11T07:00:04.786Z,97756.78
2022-12-11T07:01:36.778Z,97753.19
2022-12-11T07:03:10.419Z,97757.25
2022-12-11T07:04:42.810Z,97764.06
2022-12-11T07:06:15.593Z,97764.78
2022-12-11T07:07:47.862Z,97762.13
2022-12-11T07:09:20.237Z,97773.16
2022-12-11T07:10:52.251Z,97775.75
2022-12-11T07:12:24.351Z,97768.66
2022-12-11T07:13:59.790Z,97776.97
2022-12-11T07:15:33.575Z,97770.94
2022-12-11T07:17:07.354Z,97775.88
2022-12-11T07:18:41.025Z,97772.16
2022-12-11T07:20:13.091Z,97771.25
2022-12-11T07:21:45.084Z,97770.31
2022-12-11T07:23:17.144Z,97776.97
2022-12-11T07:24:49.273Z,97774.19
2022-12-11T07:26:22.423Z,97774.91
2022-12-11T07:27:54.369Z,97795.91
2022-12-11T07:29:26.408Z,97792.00
2022-12-11T07:30:58.336Z,97794.22
2022-12-11T07:32:30.507Z,97789.44
2022-12-11T07:34:05.698Z,97799.81
2022-12-11T07:35:38.220Z,97792.59
2022-12-11T07:37:10.241Z,97797.34
2022-12-11T07:38:42.305Z,97802.22
2022-12-11T07:40:14.626Z,97795.28
2022-12-11T07:41:47.432Z,97819.22
2022-12-11T07:43:19.585Z,97820.31
2022-12-11T07:44:51.706Z,97824.47
2022-12-11T07:46:27.062Z,97834.19
2022-12-11T07:47:59.454Z,97835.72
2022-12-11T07:49:33.532Z,97835.78
2022-12-11T07:51:28.217Z,97836.88
2022-12-11T07:53:00.257Z,97846.88
2022-12-11T07:54:32.290Z,97860.00
2022-12-11T07:56:04.865Z,97866.19
2022-12-11T07:57:37.183Z,97873.75
2022-12-11T07:59:09.185Z,97883.22
2022-12-11T08:00:41.208Z,97890.75
2022-12-11T08:02:13.287Z,97889.81
2022-12-11T08:03:46.091Z,97903.56
2022-12-11T08:05:18.400Z,97921.19
2022-12-11T08:06:50.397Z,97942.50
2022-12-11T08:08:22.579Z,97955.34
2022-12-11T08:09:54.679Z,97959.47
2022-12-11T08:11:27.064Z,97966.88
2022-12-11T08:12:59.020Z,97964.81
2022-12-11T08:14:31.056Z,97965.41
2022-12-11T08:16:08.131Z,97975.47
2022-12-11T08:17:40.430Z,97976.28
2022-12-11T08:19:13.061Z,97973.34
2022-12-11T08:20:45.168Z,97976.22
2022-12-11T08:22:17.260Z,97978.47
2022-12-11T08:23:49.851Z,97989.03
2022-12-11T08:25:21.832Z,97990.13
2022-12-11T08:26:54.137Z,97984.47
2022-12-11T08:28:27.313Z,97983.97
2022-12-11T08:29:59.520Z,97975.53
2022-12-11T08:31:31.812Z,97986.34
2022-12-11T08:33:03.875Z,97973.28
2022-12-11T08:34:35.951Z,97976.09
2022-12-11T08:36:10.992Z,97979.53
2022-12-11T08:37:43.025Z,97982.59
2022-12-11T08:39:15.286Z,97986.56
2022-12-11T08:40:47.378Z,97999.00
2022-12-11T08:42:19.412Z,97996.44
2022-12-11T08:43:55.513Z,97991.06
2022-12-11T08:45:27.644Z,97995.63
2022-12-11T08:46:59.623Z,97992.97
2022-12-11T08:48:31.735Z,97994.06
2022-12-11T08:50:04.663Z,97991.50
2022-12-11T08:51:36.638Z,97996.09
2022-12-11T08:53:08.655Z,97999.09
2022-12-11T08:56:20.952Z,97998.81
2022-12-11T08:57:53.012Z,97998.25
2022-12-11T08:59:25.952Z,97995.66
2022-12-11T09:00:58.262Z,97996.50
2022-12-11T09:02:30.333Z,98005.38
2022-12-11T09:04:02.583Z,98007.31
2022-12-11T09:05:35.341Z,98000.34
2022-12-11T09:07:07.388Z,98003.28
2022-12-11T09:08:39.628Z,98014.44
2022-12-11T09:10:11.779Z,98018.16
2022-12-11T09:11:43.941Z,98031.75
2022-12-11T09:13:15.958Z,98042.06
2022-12-11T09:14:48.171Z,98051.38
2022-12-11T09:16:22.748Z,98042.91
2022-12-11T09:17:54.722Z,98042.19
2022-12-11T09:19:31.908Z,98038.00
2022-12-11T09:21:09.788Z,98036.25
2022-12-11T09:22:43.154Z,98036.19
2022-12-11T09:24:15.889Z,98037.53
2022-12-11T09:25:48.395Z,98047.03
2022-12-11T09:27:21.690Z,98046.00
2022-12-11T09:28:55.115Z,98052.78
2022-12-11T09:30:27.778Z,98039.09
2022-12-11T09:31:59.902Z,98038.31
2022-12-11T09:33:31.909Z,98032.47
2022-12-11T09:35:04.137Z,98047.63
2022-12-11T09:36:36.379Z,98064.03
2022-12-11T09:38:08.408Z,98075.97
2022-12-11T09:39:40.434Z,98082.91
2022-12-11T09:41:39.666Z,98070.63
2022-12-11T09:43:30.475Z,98070.75
2022-12-11T09:45:04.895Z,98077.00
2022-12-11T09:46:39.779Z,98063.09
2022-12-11T09:48:13.024Z,98055.69
2022-12-11T09:49:45.759Z,98071.50
2022-12-11T09:51:40.745Z,98078.31
2022-12-11T09:53:22.588Z,98072.53
2022-12-11T09:55:00.541Z,98087.78
2022-12-11T09:56:50.979Z,98085.97
2022-12-11T09:58:31.755Z,98087.63
2022-12-11T10:00:28.527Z,98083.56
2022-12-11T10:02:15.995Z,98082.41
2022-12-11T10:04:13.402Z,98073.16
2022-12-11T10:06:08.405Z,98069.06
2022-12-11T10:08:04.129Z,98074.47
2022-12-11T10:10:04.254Z,98061.66
2022-12-11T10:12:03.699Z,98065.25
2022-12-11T10:13:47.603Z,98077.75
2022-12-11T10:15:40.760Z,98073.16
2022-12-11T10:17:13.883Z,98066.41
2022-12-11T10:18:46.907Z,98080.44
2022-12-11T10:20:31.545Z,98079.34
2022-12-11T10:22:03.891Z,98076.97
2022-12-11T10:25:33.336Z,98080.56
2022-12-11T10:27:20.312Z,98071.03
2022-12-11T10:28:52.416Z,98073.00
2022-12-11T10:30:34.515Z,98072.88
2022-12-11T10:32:16.412Z,98069.41
2022-12-11T10:34:02.873Z,98082.19
2022-12-11T10:36:01.038Z,98092.56
2022-12-11T10:37:33.488Z,98087.53
2022-12-11T10:39:26.096Z,98084.56
2022-12-11T10:41:04.589Z,98077.75
2022-12-11T10:42:41.284Z,98084.03
2022-12-11T10:44:29.888Z,98071.81
2022-12-11T10:46:02.211Z,98074.50
2022-12-11T10:47:34.475Z,98064.41
2022-12-11T10:49:06.498Z,98068.50
2022-12-11T10:50:38.901Z,98064.16
2022-12-11T10:52:13.725Z,98072.41
2022-12-11T10:53:58.719Z,98066.31
2022-12-11T10:55:48.851Z,98070.41
2022-12-11T10:58:53.880Z,98071.09
2022-12-11T11:00:41.924Z,98072.00
2022-12-11T11:02:36.237Z,98066.72
2022-12-11T11:04:16.418Z,98051.16
2022-12-11T11:05:49.623Z,98053.31
2022-12-11T11:07:29.205Z,98056.53
2022-12-11T11:09:02.031Z,98059.03
2022-12-11T11:10:34.093Z,98070.41
2022-12-11T11:12:25.019Z,98076.28
2022-12-11T11:14:08.954Z,98079.63
2022-12-11T11:15:40.938Z,98082.13
2022-12-11T11:17:17.460Z,98077.03
2022-12-11T11:18:55.008Z,98079.50
2022-12-11T11:20:29.646Z,98069.31
2022-12-11T11:22:06.244Z,98072.66
2022-12-11T11:23:45.476Z,98082.81
2022-12-11T11:25:22.109Z,98090.41
2022-12-11T11:27:12.698Z,98102.53
2022-12-11T11:28:50.324Z,98108.38
2022-12-11T11:30:29.297Z,98103.50
2022-12-11T11:33:35.737Z,98067.97
2022-12-11T11:35:13.938Z,98082.31
2022-12-11T11:36:56.618Z,98090.78
2022-12-11T11:38:34.769Z,98083.09
2022-12-11T11:40:15.736Z,98086.59
2022-12-11T11:41:59.147Z,98082.59
2022-12-11T11:43:41.171Z,98071.31
2022-12-11T11:45:17.485Z,98071.41
2022-12-11T11:47:04.362Z,98075.69
2022-12-11T11:48:39.190Z,98086.91
2022-12-11T11:50:18.500Z,98080.97
2022-12-11T11:52:01.552Z,98081.25
2022-12-11T11:53:38.419Z,98082.97
2022-12-11T11:55:22.597Z,98063.63
2022-12-11T11:56:56.645Z,98073.53
2022-12-11T11:58:38.921Z,98102.53
2022-12-11T12:00:27.587Z,98086.84
2022-12-11T12:02:14.635Z,98076.59
2022-12-11T12:03:48.597Z,98080.06
2022-12-11T12:05:56.019Z,98066.00
2022-12-11T12:07:43.703Z,98078.97
2022-12-11T12:09:38.422Z,98085.78
2022-12-11T12:11:23.009Z,98085.00
2022-12-11T12:13:23.891Z,98090.22
2022-12-11T12:15:22.254Z,98096.22
2022-12-11T12:17:10.013Z,98095.16
2022-12-11T12:18:44.673Z,98103.66
2022-12-11T12:20:34.866Z,98102.66
2022-12-11T12:22:31.656Z,98107.78
2022-12-11T12:24:06.907Z,98121.44
2022-12-11T12:25:43.104Z,98113.66
2022-12-11T12:27:54.521Z,98116.19
2022-12-11T12:29:56.112Z,98123.81
2022-12-11T12:33:26.149Z,98116.00
2022-12-11T12:35:03.795Z,98104.00
2022-12-11T12:36:44.647Z,98109.94
2022-12-11T12:38:35.551Z,98108.97
2022-12-11T12:40:28.915Z,98115.84
2022-12-11T12:42:44.247Z,98096.84
2022-12-11T12:44:18.584Z,98108.88
2022-12-11T12:46:00.659Z,98101.91
2022-12-11T12:47:34.099Z,98107.06
2022-12-11T12:49:12.796Z,98106.94
2022-12-11T12:50:48.269Z,98108.66
2022-12-11T12:52:39.626Z,98101.69
2022-12-11T12:54:15.066Z,98111.97
2022-12-11T12:55:48.755Z,98108.50
2022-12-11T12:57:21.825Z,98109.38
2022-12-11T12:58:53.910Z,98112.06
2022-12-11T13:00:40.636Z,98111.03
2022-12-11T13:02:14.524Z,98110.22
2022-12-11T13:03:55.665Z,98106.72
2022-12-11T13:05:30.232Z,98111.97
2022-12-11T13:07:24.862Z,98103.34
2022-12-11T13:08:56.959Z,98099.19
2022-12-11T13:10:34.500Z,98104.22
2022-12-11T13:12:15.043Z,98098.13
2022-12-11T13:14:08.919Z,98101.69
2022-12-11T13:15:45.343Z,98087.22
2022-12-11T13:17:23.445Z,98086.38
2022-12-11T13:18:55.388Z,98088.66
2022-12-11T13:20:30.049Z,98091.09
2022-12-11T13:22:22.018Z,98089.34
2022-12-11T13:23:54.305Z,98099.94
2022-12-11T13:25:29.516Z,98104.13
2022-12-11T13:27:12.762Z,98106.56
2022-12-11T13:28:44.925Z,98112.56
2022-12-11T13:30:19.817Z,98111.63
2022-12-11T13:31:59.518Z,98123.41
2022-12-11T13:33:32.770Z,98126.81
2022-12-11T13:35:06.873Z,98130.13
2022-12-11T13:36:40.503Z,98134.41
2022-12-11T13:38:17.853Z,98128.22
2022-12-11T13:39:49.946Z,98110.31
2022-12-11T13:41:22.044Z,98107.72
2022-12-11T13:43:05.723Z,98115.38
2022-12-11T13:44:41.031Z,98114.59
2022-12-11T13:46:16.447Z,98126.66
2022-12-11T13:47:48.621Z,98130.13
2022-12-11T13:49:26.833Z,98129.09
2022-12-11T13:50:59.717Z,98136.00
2022-12-11T13:52:32.990Z,98149.81
2022-12-11T13:54:20.005Z,98144.50
2022-12-11T13:56:02.377Z,98146.16
2022-12-11T13:57:34.419Z,98142.13
2022-12-11T13:59:06.599Z,98160.13
2022-12-11T14:00:38.669Z,98166.19
2022-12-11T14:02:36.124Z,98165.06
2022-12-11T14:04:14.396Z,98165.19
2022-12-11T14:05:46.473Z,98173.88
2022-12-11T14:07:37.058Z,98178.03
2022-12-11T14:09:09.329Z,98167.88
2022-12-11T14:10:41.420Z,98171.41
2022-12-11T14:12:19.562Z,98172.97
2022-12-11T14:13:51.567Z,98164.50
2022-12-11T14:15:24.044Z,98162.84
2022-12-11T14:16:56.310Z,98168.00
2022-12-11T14:18:31.106Z,98166.16
2022-12-11T14:20:08.512Z,98173.03
2022-12-11T14:21:40.630Z,98182.50
2022-12-11T14:23:22.836Z,98189.25
2022-12-11T14:24:57.849Z,98190.22
2022-12-11T14:26:32.615Z,98197.94
2022-12-11T14:28:04.803Z,98201.53
2022-12-11T14:29:36.889Z,98207.97
2022-12-11T14:31:09.563Z,98203.81
2022-12-11T14:32:45.010Z,98214.66
2022-12-11T14:34:25.671Z,98205.22
2022-12-11T14:35:58.233Z,98202.69
2022-12-11T14:37:30.628Z,98211.28
2022-12-11T14:40:54.030Z,98201.91
2022-12-11T14:42:31.658Z,98194.25
2022-12-11T14:44:05.719Z,98208.00
2022-12-11T14:45:41.331Z,98212.44
2022-12-11T14:47:26.347Z,98217.66
2022-12-11T14:49:02.928Z,98223.53
2022-12-11T14:50:47.819Z,98251.91
2022-12-11T14:52:27.892Z,98244.66
2022-12-11T14:54:00.281Z,98242.16
2022-12-11T14:55:35.440Z,98248.47
2022-12-11T14:57:08.252Z,98248.53
2022-12-11T14:58:45.861Z,98251.00
2022-12-11T15:00:29.532Z,98250.09
2022-12-11T15:02:24.825Z,98252.63
2022-12-11T15:04:20.634Z,98264.69
2022-12-11T15:05:58.184Z,98271.63
2022-12-11T15:07:30.199Z,98261.59
2022-12-11T15:15:33.586Z,98300.28
2022-12-11T15:17:13.009Z,98316.53
2022-12-11T15:18:49.272Z,98309.31
2022-12-11T15:20:31.447Z,98301.81
2022-12-11T15:22:05.082Z,98282.31
2022-12-11T15:23:45.942Z,98279.72
2022-12-11T15:25:29.172Z,98276.56
2022-12-11T15:27:01.621Z,98287.78
2022-12-11T15:28:38.298Z,98277.66
2022-12-11T15:30:28.659Z,98276.88
2022-12-11T15:32:11.259Z,98274.47
2022-12-11T15:33:48.184Z,98271.13
2022-12-11T15:35:24.362Z,98279.69
2022-12-11T15:36:56.425Z,98292.72
2022-12-11T15:38:31.701Z,98295.25
2022-12-11T15:40:05.724Z,98290.09
2022-12-11T15:41:40.587Z,98280.88
2022-12-11T15:43:12.577Z,98285.97
2022-12-11T15:44:44.812Z,98290.38
2022-12-11T15:46:19.751Z,98285.22
2022-12-11T15:47:52.977Z,98277.66
2022-12-11T15:49:25.086Z,98279.53
2022-12-11T15:50:57.465Z,98281.38
2022-12-11T15:52:29.565Z,98278.91
2022-12-11T15:54:01.523Z,98278.09
2022-12-11T15:55:35.354Z,98281.47
2022-12-11T15:57:14.876Z,98290.75
2022-12-11T15:58:51.953Z,98287.38
2022-12-11T16:00:24.395Z,98278.84
2022-12-11T16:01:56.467Z,98291.81
2022-12-11T16:03:28.530Z,98293.53
2022-12-11T16:05:00.511Z,98301.28
2022-12-11T16:06:35.580Z,98291.72
2022-12-11T16:08:08.239Z,98300.50
2022-12-11T16:09:40.446Z,98297.16
2022-12-11T16:11:14.068Z,98303.06
2022-12-11T16:12:46.034Z,98304.66
2022-12-11T16:14:18.051Z,98303.19
2022-12-11T16:15:51.777Z,98312.56
2022-12-11T16:17:24.051Z,98314.44
2022-12-11T16:18:56.138Z,98318.69
2022-12-11T16:20:28.550Z,98322.09
2022-12-11T16:22:00.774Z,98324.59
2022-12-11T16:23:32.840Z,98325.47
2022-12-11T16:25:05.314Z,98328.16
2022-12-11T16:26:37.302Z,98332.38
2022-12-11T16:28:09.786Z,98338.34
2022-12-11T16:29:42.326Z,98343.56
2022-12-11T16:31:15.449Z,98339.25
2022-12-11T16:32:47.523Z,98346.97
2022-12-11T16:34:19.645Z,98348.69
2022-12-11T16:35:52.668Z,98342.75
2022-12-11T16:37:24.743Z,98338.63
2022-12-11T16:38:57.144Z,98359.03
2022-12-11T16:40:29.253Z,98350.50
2022-12-11T16:42:01.314Z,98354.72
2022-12-11T16:43:33.550Z,98358.19
2022-12-11T16:45:08.892Z,98363.34
2022-12-11T16:46:41.168Z,98369.34
2022-12-11T16:48:13.183Z,98359.16
2022-12-11T16:49:45.571Z,98366.78
2022-12-11T16:51:18.301Z,98365.97
2022-12-11T16:52:50.426Z,98369.38
2022-12-11T16:54:22.440Z,98369.38
2022-12-11T16:55:54.509Z,98374.53
2022-12-11T16:57:26.640Z,98374.53
2022-12-11T16:58:58.681Z,98364.41
2022-12-11T17:00:30.597Z,98368.56
2022-12-11T17:02:02.556Z,98365.97
2022-12-11T17:03:34.562Z,98365.19
2022-12-11T17:05:06.785Z,98372.94
2022-12-11T17:06:38.840Z,98372.94
2022-12-11T17:08:10.907Z,98373.00
2022-12-11T17:09:43.387Z,98373.78
2022-12-11T17:11:18.133Z,98377.97
2022-12-11T17:12:50.133Z,98373.72
2022-12-11T17:14:22.141Z,98374.63
2022-12-11T17:15:54.206Z,98379.78
2022-12-11T17:17:26.498Z,98373.78
2022-12-11T17:18:58.714Z,98376.31
2022-12-11T17:20:30.809Z,98384.09
2022-12-11T17:22:03.051Z,98377.25
2022-12-11T17:23:35.832Z,98376.38
2022-12-11T17:25:08.220Z,98391.75
2022-12-11T17:26:41.810Z,98379.78
2022-12-11T17:28:13.944Z,98386.44
2022-12-11T17:29:46.201Z,98389.13
2022-12-11T17:31:19.314Z,98391.72
2022-12-11T17:34:24.239Z,98382.47
2022-12-11T17:35:56.442Z,98381.66
2022-12-11T17:37:28.427Z,98390.91
2022-12-11T17:39:00.549Z,98387.53
2022-12-11T17:40:32.623Z,98390.13
2022-12-11T17:42:04.828Z,98396.16
2022-12-11T17:43:37.036Z,98401.31
2022-12-11T17:45:09.516Z,98402.09
2022-12-11T17:46:41.835Z,98402.97
2022-12-11T17:48:15.106Z,98404.72
2022-12-11T17:49:47.311Z,98406.47
2022-12-11T17:51:24.742Z,98388.47
2022-12-11T17:52:58.006Z,98391.97
2022-12-11T17:54:30.047Z,98391.06
2022-12-11T17:56:03.974Z,98391.06
2022-12-11T17:57:38.298Z,98391.22
2022-12-11T17:59:10.417Z,98395.50
2022-12-11T18:00:44.835Z,98393.75
2022-12-11T18:02:19.957Z,98402.41
2022-12-11T18:03:52.068Z,98399.06
2022-12-11T18:05:25.522Z,98406.78
2022-12-11T18:06:57.505Z,98399.06
2022-12-11T18:08:30.513Z,98403.38
2022-12-11T18:10:02.726Z,98395.66
2022-12-11T18:11:35.193Z,98397.34
2022-12-11T18:13:07.508Z,98402.53
2022-12-11T18:14:39.692Z,98407.69
2022-12-11T18:16:19.897Z,98399.84
2022-12-11T18:17:52.061Z,98406.75
2022-12-11T18:19:25.688Z,98399.03
2022-12-11T18:20:57.803Z,98409.34
2022-12-11T18:22:29.891Z,98413.59
2022-12-11T18:24:02.499Z,98416.13
2022-12-11T18:25:34.687Z,98410.13
2022-12-11T18:27:10.592Z,98413.56
2022-12-11T18:28:43.034Z,98415.28
2022-12-11T18:30:15.380Z,98411.91
2022-12-11T18:31:47.550Z,98420.50
2022-12-11T18:33:19.705Z,98417.09
2022-12-11T18:34:51.792Z,98404.34
2022-12-11T18:36:23.872Z,98405.22
2022-12-11T18:37:56.141Z,98403.53
2022-12-11T18:39:28.154Z,98403.59
2022-12-11T18:41:04.273Z,98404.41
2022-12-11T18:42:36.512Z,98398.53
2022-12-11T18:44:10.138Z,98396.81
2022-12-11T18:45:45.527Z,98404.53
2022-12-11T18:49:02.264Z,98405.56
2022-12-11T18:50:35.112Z,98410.63
2022-12-11T18:52:07.271Z,98414.19
2022-12-11T18:53:41.161Z,98414.19
2022-12-11T18:55:13.292Z,98426.31
2022-12-11T18:56:48.407Z,98430.66
2022-12-11T18:58:20.910Z,98432.50
2022-12-11T18:59:53.763Z,98440.25
2022-12-11T19:01:29.157Z,98446.22
2022-12-11T19:03:02.414Z,98443.88
2022-12-11T19:04:36.521Z,98450.69
2022-12-11T19:06:15.043Z,98449.69
2022-12-11T19:07:47.128Z,98449.81
2022-12-11T19:09:19.269Z,98443.78